Kamen'-na-Obi, Russia
Current Conditions -  °F | °C
As of 1:00 PM on Wednesday 26 Nov 2014 (Local Time) from UNBB Reporting Station
Heavy Snow Heavy Snow  
Wind Chill: -8°   Ceiling: 500
Heat Index: 12°   Visibility: 0.5mi
Dew Point:   Wind: 25mph
Humidity: 79%   Direction: 230°SW
Pressure: 29.91"   Gusts: NA
Location:  53.82°N, 81.27°E
Report Text: UNBB 260600Z 23011MPS 0800 R24/0800V1400D +SN BLSN OVC005M11/M14 Q1013 NOSIG RMK QBB150 QFE737/0983 24421048
Loading
Personal Weather Stations






























Interactive Weather Map New forecast layout! Learn more

10-Day Weather Forecast

Advertisements
Track Severe Weather on mobile